createdAt,value
2018-05-04T00:01:18.558Z,5.20
2018-05-04T00:03:44.833Z,5.20
2018-05-04T00:06:11.105Z,4.80
2018-05-04T00:08:38.151Z,4.40
2018-05-04T00:11:04.438Z,4.50
2018-05-04T00:13:30.684Z,4.40
2018-05-04T00:15:56.922Z,4.80
2018-05-04T00:18:23.876Z,4.83
2018-05-04T00:20:50.817Z,5.07
2018-05-04T00:23:17.777Z,5.27
2018-05-04T00:25:44.016Z,4.47
2018-05-04T00:28:10.244Z,5.27
2018-05-04T00:30:36.521Z,5.93
2018-05-04T00:33:02.828Z,4.87
2018-05-04T00:35:29.081Z,5.30
2018-05-04T00:37:55.276Z,5.90
2018-05-04T00:40:21.533Z,6.23
2018-05-04T00:42:47.786Z,5.13
2018-05-04T00:45:14.802Z,6.77
2018-05-04T00:47:41.024Z,6.07
2018-05-04T00:50:07.296Z,6.10
2018-05-04T00:52:33.597Z,6.40
2018-05-04T00:54:59.829Z,7.30
2018-05-04T00:57:26.077Z,6.60
2018-05-04T00:59:53.089Z,5.93
2018-05-04T01:02:19.348Z,7.20
2018-05-04T01:04:45.585Z,6.77
2018-05-04T01:07:11.829Z,6.57
2018-05-04T01:09:38.110Z,7.13
2018-05-04T01:12:04.328Z,6.90
2018-05-04T01:14:30.597Z,7.37
2018-05-04T01:16:57.609Z,7.70
2018-05-04T01:19:23.869Z,6.67
2018-05-04T01:21:50.885Z,6.97
2018-05-04T01:24:17.173Z,7.30
2018-05-04T01:26:43.417Z,6.37
2018-05-04T01:29:09.622Z,6.77
2018-05-04T01:31:35.906Z,7.27
2018-05-04T01:34:02.161Z,6.47
2018-05-04T01:36:29.132Z,6.20
2018-05-04T01:38:55.408Z,6.37
2018-05-04T01:41:21.669Z,6.00
2018-05-04T01:43:48.685Z,5.80
2018-05-04T01:46:14.944Z,6.40
2018-05-04T01:48:41.198Z,6.63
2018-05-04T01:51:07.419Z,5.27
2018-05-04T01:53:33.638Z,5.33
2018-05-04T01:55:59.898Z,5.47
2018-05-04T01:58:26.154Z,5.50
2018-05-04T02:00:52.449Z,5.60
2018-05-04T02:03:18.678Z,5.60
2018-05-04T02:05:44.934Z,4.80
2018-05-04T02:08:11.161Z,5.17
2018-05-04T02:10:37.405Z,5.63
2018-05-04T02:13:03.644Z,4.70
2018-05-04T02:15:29.922Z,5.80
2018-05-04T02:17:56.366Z,5.40
2018-05-04T02:20:22.615Z,4.67
2018-05-04T02:22:48.856Z,5.30
2018-05-04T02:25:15.116Z,4.80
2018-05-04T02:27:42.118Z,4.87
2018-05-04T02:30:08.373Z,4.87
2018-05-04T02:32:34.618Z,4.63
2018-05-04T02:35:00.854Z,4.53
2018-05-04T02:37:27.106Z,5.00
2018-05-04T02:39:53.345Z,5.20
2018-05-04T02:42:19.580Z,4.77
2018-05-04T02:44:45.874Z,4.40
2018-05-04T02:47:12.093Z,4.67
2018-05-04T02:49:38.313Z,4.10
2018-05-04T02:52:05.285Z,4.80
2018-05-04T02:54:31.568Z,4.57
2018-05-04T02:56:57.845Z,4.67
2018-05-04T02:59:24.105Z,5.40
2018-05-04T03:01:50.383Z,5.07
2018-05-04T03:04:16.633Z,4.70
2018-05-04T03:06:42.875Z,5.27
2018-05-04T03:09:09.159Z,5.43
2018-05-04T03:11:36.189Z,4.63
2018-05-04T03:14:03.214Z,6.00
2018-05-04T03:16:29.474Z,4.40
2018-05-04T03:18:56.488Z,4.57
2018-05-04T03:21:22.756Z,5.20
2018-05-04T03:23:48.993Z,4.63
2018-05-04T03:26:15.270Z,4.67
2018-05-04T03:28:41.504Z,4.87
2018-05-04T03:31:07.737Z,4.93
2018-05-04T03:33:33.973Z,5.40
2018-05-04T03:36:00.224Z,5.30
2018-05-04T03:38:26.469Z,4.90
2018-05-04T03:40:52.746Z,4.23
2018-05-04T03:43:18.953Z,4.70
2018-05-04T03:45:46.066Z,5.30
2018-05-04T03:48:12.486Z,5.40
2018-05-04T03:50:38.907Z,5.00
2018-05-04T03:53:05.319Z,5.10
2018-05-04T03:55:31.883Z,6.27
2018-05-04T03:58:10.502Z,5.23
2018-05-04T04:00:49.166Z,5.93
2018-05-04T04:03:27.666Z,5.50
2018-05-04T04:05:54.120Z,4.70
2018-05-04T04:08:20.522Z,5.60
2018-05-04T04:10:46.972Z,5.07
2018-05-04T04:13:14.158Z,4.90
2018-05-04T04:15:40.625Z,4.40
2018-05-04T04:18:07.118Z,4.80
2018-05-04T04:20:33.581Z,4.70
2018-05-04T04:23:00.014Z,5.07
2018-05-04T04:25:26.539Z,4.70
2018-05-04T04:27:52.878Z,4.90
2018-05-04T04:30:19.117Z,4.83
2018-05-04T04:32:46.118Z,4.80
2018-05-04T04:35:12.390Z,4.53
2018-05-04T04:37:38.633Z,4.53
2018-05-04T04:40:04.947Z,5.47
2018-05-04T04:42:31.912Z,5.20
2018-05-04T04:44:58.170Z,5.50
2018-05-04T04:47:24.421Z,5.20
2018-05-04T04:49:50.709Z,6.10
2018-05-04T04:52:16.941Z,5.00
2018-05-04T04:54:43.206Z,5.90
2018-05-04T04:57:09.445Z,5.10
2018-05-04T04:59:35.698Z,5.50
2018-05-04T05:02:02.722Z,5.83
2018-05-04T05:04:28.973Z,5.90
2018-05-04T05:06:55.933Z,5.60
2018-05-04T05:09:22.157Z,5.57
2018-05-04T05:11:49.166Z,6.00
2018-05-04T05:14:15.431Z,7.10
2018-05-04T05:16:41.750Z,5.80
2018-05-04T05:19:08.706Z,6.30
2018-05-04T05:21:35.713Z,5.97
2018-05-04T05:24:01.941Z,5.80
2018-05-04T05:26:28.169Z,5.70
2018-05-04T05:28:54.388Z,5.13
2018-05-04T05:31:20.611Z,5.63
2018-05-04T05:33:46.818Z,5.70
2018-05-04T05:36:13.079Z,6.23
2018-05-04T05:38:39.338Z,5.80
2018-05-04T05:41:06.321Z,5.87
2018-05-04T05:43:32.545Z,6.83
2018-05-04T05:45:58.777Z,5.53
2018-05-04T05:48:25.070Z,6.63
2018-05-04T05:50:52.053Z,6.20
2018-05-04T05:53:18.270Z,6.20
2018-05-04T05:55:44.522Z,7.13
2018-05-04T05:58:10.801Z,6.97
2018-05-04T06:00:37.165Z,6.20
2018-05-04T06:03:03.389Z,6.97
2018-05-04T06:05:29.620Z,6.80
2018-05-04T06:07:55.887Z,6.50
2018-05-04T06:10:22.149Z,7.00
2018-05-04T06:12:49.169Z,7.20
2018-05-04T06:15:15.385Z,6.30
2018-05-04T06:17:41.644Z,7.70
2018-05-04T06:20:08.633Z,6.23
2018-05-04T06:22:34.886Z,7.00
2018-05-04T06:25:01.147Z,7.57
2018-05-04T06:27:28.158Z,6.70
2018-05-04T06:29:54.365Z,6.67
2018-05-04T06:32:20.690Z,6.90
2018-05-04T06:34:46.928Z,6.83
2018-05-04T06:37:13.138Z,8.20
2018-05-04T06:39:39.546Z,6.20
2018-05-04T06:42:05.757Z,9.00
2018-05-04T06:44:32.013Z,6.97
2018-05-04T06:46:58.269Z,7.50
2018-05-04T06:49:24.521Z,7.27
2018-05-04T06:51:50.785Z,8.20
2018-05-04T06:54:17.873Z,6.70
2018-05-04T06:56:44.113Z,7.23
2018-05-04T06:59:10.381Z,7.00
2018-05-04T07:01:37.374Z,8.43
2018-05-04T07:04:03.625Z,6.90
2018-05-04T07:06:29.842Z,8.83
2018-05-04T07:08:56.100Z,8.80
2018-05-04T07:11:22.377Z,7.63
2018-05-04T07:13:48.614Z,7.50
2018-05-04T07:16:14.877Z,7.67
2018-05-04T07:18:41.169Z,7.40
2018-05-04T07:21:07.425Z,8.30
2018-05-04T07:23:33.674Z,7.70
2018-05-04T07:25:59.894Z,7.97
2018-05-04T07:28:26.118Z,7.80
2018-05-04T07:30:52.378Z,7.50
2018-05-04T07:33:19.333Z,7.53
2018-05-04T07:35:46.302Z,6.87
2018-05-04T07:38:12.525Z,7.50
2018-05-04T07:40:38.773Z,7.57
2018-05-04T07:43:05.085Z,8.27
2018-05-04T07:45:31.276Z,8.43
2018-05-04T07:47:57.533Z,7.23
2018-05-04T07:50:23.775Z,7.13
2018-05-04T07:52:50.038Z,6.10
2018-05-04T07:55:16.362Z,7.80
2018-05-04T07:57:42.537Z,7.43
2018-05-04T08:00:08.806Z,7.93
2018-05-04T08:02:35.066Z,5.80
2018-05-04T08:05:01.298Z,8.60
2018-05-04T08:07:27.557Z,7.00
2018-05-04T08:09:53.838Z,6.90
2018-05-04T08:12:20.071Z,6.20
2018-05-04T08:14:46.305Z,7.10
2018-05-04T08:17:12.566Z,6.43
2018-05-04T08:19:38.820Z,6.40
2018-05-04T08:22:05.071Z,6.30
2018-05-04T08:24:31.310Z,6.40
2018-05-04T08:26:57.529Z,6.47
2018-05-04T08:29:23.792Z,6.93
2018-05-04T08:31:50.809Z,6.60
2018-05-04T08:34:17.025Z,6.00
2018-05-04T08:36:43.270Z,6.93
2018-05-04T08:39:09.544Z,6.20
2018-05-04T08:41:35.818Z,6.40
2018-05-04T08:44:02.116Z,6.70
2018-05-04T08:46:28.359Z,6.07
2018-05-04T08:48:54.605Z,5.83
2018-05-04T08:51:20.858Z,6.07
2018-05-04T08:53:47.101Z,5.50
2018-05-04T08:56:13.401Z,4.90
2018-05-04T08:58:39.669Z,6.00
2018-05-04T09:01:05.937Z,6.33
2018-05-04T09:03:32.153Z,6.60
2018-05-04T09:05:58.411Z,5.10
2018-05-04T09:08:24.648Z,6.40
2018-05-04T09:10:50.901Z,6.17
2018-05-04T09:13:17.894Z,7.30
2018-05-04T09:15:44.144Z,5.97
2018-05-04T09:18:10.389Z,6.23
2018-05-04T09:20:36.699Z,6.40
2018-05-04T09:23:03.007Z,6.53
2018-05-04T09:25:29.221Z,5.77
2018-05-04T09:27:55.464Z,5.97
2018-05-04T09:30:21.691Z,5.90
2018-05-04T09:32:47.970Z,6.97
2018-05-04T09:35:14.934Z,6.33
2018-05-04T09:37:41.945Z,6.13
2018-05-04T09:40:08.221Z,6.87
2018-05-04T09:42:34.477Z,6.50
2018-05-04T09:45:00.743Z,6.83
2018-05-04T09:47:26.969Z,6.83
2018-05-04T09:49:53.974Z,7.03
2018-05-04T09:52:20.224Z,5.93
2018-05-04T09:54:47.217Z,6.97
2018-05-04T09:57:14.214Z,6.30
2018-05-04T09:59:40.464Z,6.30
2018-05-04T10:02:06.721Z,6.70
2018-05-04T10:04:32.978Z,6.20
2018-05-04T10:06:59.245Z,6.50
2018-05-04T10:09:25.464Z,5.83
2018-05-04T10:11:51.688Z,6.53
2018-05-04T10:14:17.907Z,5.93
2018-05-04T10:16:44.116Z,6.57
2018-05-04T10:19:10.368Z,6.40
2018-05-04T10:21:36.628Z,5.70
2018-05-04T10:24:03.610Z,6.10
2018-05-04T10:26:29.881Z,6.43
2018-05-04T10:28:56.104Z,5.80
2018-05-04T10:31:22.421Z,6.40
2018-05-04T10:33:49.425Z,6.30
2018-05-04T10:36:16.432Z,7.40
2018-05-04T10:38:42.755Z,6.30
2018-05-04T10:41:08.899Z,6.27
2018-05-04T10:43:35.177Z,6.00
2018-05-04T10:46:01.460Z,5.87
2018-05-04T10:48:27.736Z,6.20
2018-05-04T10:50:53.963Z,7.50
2018-05-04T10:53:20.211Z,6.47
2018-05-04T10:55:46.464Z,6.80
2018-05-04T10:58:12.677Z,6.33
2018-05-04T11:00:38.921Z,6.90
2018-05-04T11:03:05.176Z,7.30
2018-05-04T11:05:32.152Z,7.33
2018-05-04T11:07:58.396Z,7.33
2018-05-04T11:10:24.580Z,7.90
2018-05-04T11:12:51.616Z,7.40
2018-05-04T11:15:18.615Z,8.10
2018-05-04T11:17:44.839Z,6.87
2018-05-04T11:20:11.036Z,7.03
2018-05-04T11:22:37.279Z,6.50
2018-05-04T11:25:03.532Z,7.00
2018-05-04T11:27:29.781Z,7.23
2018-05-04T11:29:55.967Z,6.73
2018-05-04T11:32:22.220Z,7.47
2018-05-04T11:34:48.465Z,7.23
2018-05-04T11:37:14.721Z,6.63
2018-05-04T11:39:41.715Z,6.60
2018-05-04T11:42:07.951Z,7.20
2018-05-04T11:44:34.208Z,7.77
2018-05-04T11:47:01.231Z,6.70
2018-05-04T11:49:27.488Z,6.77
2018-05-04T11:51:54.496Z,6.30
2018-05-04T11:54:20.785Z,6.80
2018-05-04T11:56:47.097Z,5.30
2018-05-04T11:59:13.376Z,6.67
2018-05-04T12:01:39.686Z,6.50
2018-05-04T12:04:05.969Z,7.00
2018-05-04T12:06:32.224Z,6.70
2018-05-04T12:08:59.220Z,6.80
2018-05-04T12:11:25.448Z,6.67
2018-05-04T12:13:51.641Z,6.50
2018-05-04T12:16:17.916Z,6.83
2018-05-04T12:18:44.237Z,7.00
2018-05-04T12:21:10.486Z,5.47
2018-05-04T12:23:36.771Z,6.03
2018-05-04T12:26:03.081Z,5.97
2018-05-04T12:28:29.312Z,6.10
2018-05-04T12:30:55.573Z,5.20
2018-05-04T12:33:21.833Z,6.63
2018-05-04T12:35:48.057Z,5.30
2018-05-04T12:38:14.309Z,5.20
2018-05-04T12:40:41.304Z,6.87
2018-05-04T12:43:07.548Z,5.50
2018-05-04T12:45:33.797Z,5.60
2018-05-04T12:48:00.018Z,6.30
2018-05-04T12:50:26.265Z,5.73
2018-05-04T12:52:52.497Z,5.90
2018-05-04T12:55:19.496Z,4.50
2018-05-04T12:57:45.707Z,5.73
2018-05-04T13:00:11.998Z,5.80
2018-05-04T13:02:39.005Z,5.70
2018-05-04T13:05:05.217Z,5.53
2018-05-04T13:07:31.504Z,5.50
2018-05-04T13:09:58.486Z,5.70
2018-05-04T13:12:24.821Z,5.57
2018-05-04T13:14:51.050Z,5.70
2018-05-04T13:17:17.253Z,6.40
2018-05-04T13:19:43.542Z,5.90
2018-05-04T13:22:09.779Z,5.50
2018-05-04T13:24:36.054Z,6.20
2018-05-04T13:27:02.273Z,5.47
2018-05-04T13:29:28.545Z,5.50
2018-05-04T13:31:54.901Z,6.07
2018-05-04T13:34:21.921Z,5.43
2018-05-04T13:36:48.149Z,5.60
2018-05-04T13:39:14.401Z,6.13
2018-05-04T13:41:40.674Z,6.53
2018-05-04T13:44:06.895Z,5.77
2018-05-04T13:46:33.125Z,6.30
2018-05-04T13:48:59.340Z,6.03
2018-05-04T13:51:25.570Z,7.13
2018-05-04T13:53:51.810Z,6.40
2018-05-04T13:56:18.067Z,5.50
2018-05-04T13:58:44.302Z,6.20
2018-05-04T14:01:12.334Z,6.40
2018-05-04T14:03:38.536Z,6.37
2018-05-04T14:06:04.830Z,5.90
2018-05-04T14:08:31.072Z,5.37
2018-05-04T14:10:57.305Z,5.77
2018-05-04T14:13:23.585Z,7.10
2018-05-04T14:15:49.826Z,5.37
2018-05-04T14:18:16.173Z,5.97
2018-05-04T14:20:42.433Z,6.60
2018-05-04T14:23:08.649Z,5.20
2018-05-04T14:25:34.907Z,5.83
2018-05-04T14:28:01.182Z,5.83
2018-05-04T14:30:27.493Z,6.60
2018-05-04T14:32:53.797Z,5.63
2018-05-04T14:35:20.073Z,6.27
2018-05-04T14:37:46.356Z,6.87
2018-05-04T14:40:12.700Z,6.67
2018-05-04T14:42:38.982Z,6.17
2018-05-04T14:45:05.996Z,6.90
2018-05-04T14:47:32.265Z,6.00
2018-05-04T14:49:58.533Z,6.13
2018-05-04T14:52:24.792Z,7.03
2018-05-04T14:54:51.013Z,6.50
2018-05-04T14:57:17.281Z,5.97
2018-05-04T14:59:43.600Z,6.10
2018-05-04T15:02:09.843Z,5.13
2018-05-04T15:04:36.845Z,6.73
2018-05-04T15:07:03.129Z,6.60
2018-05-04T15:09:30.121Z,6.37
2018-05-04T15:11:56.473Z,6.50
2018-05-04T15:14:22.756Z,5.90
2018-05-04T15:16:49.045Z,6.77
2018-05-04T15:19:16.073Z,6.50
2018-05-04T15:21:42.345Z,6.77
2018-05-04T15:24:08.648Z,6.43
2018-05-04T15:26:34.911Z,6.07
2018-05-04T15:29:01.240Z,5.73
2018-05-04T15:31:27.602Z,7.20
2018-05-04T15:33:53.913Z,6.40
2018-05-04T15:36:20.219Z,6.67
2018-05-04T15:38:47.197Z,6.53
2018-05-04T15:41:13.512Z,7.40
2018-05-04T15:43:39.733Z,6.70
2018-05-04T15:46:06.123Z,6.77
2018-05-04T15:48:38.461Z,7.20
2018-05-04T15:51:10.951Z,7.03
2018-05-04T15:53:37.249Z,7.77
2018-05-04T15:56:03.516Z,6.97
2018-05-04T15:58:29.756Z,6.27
2018-05-04T16:00:56.092Z,7.23
2018-05-04T16:03:22.397Z,6.77
2018-05-04T16:05:48.624Z,7.00
2018-05-04T16:08:14.873Z,7.73
2018-05-04T16:10:41.172Z,6.13
2018-05-04T16:13:07.425Z,6.30
2018-05-04T16:15:33.651Z,7.30
2018-05-04T16:17:59.860Z,6.97
2018-05-04T16:20:26.161Z,7.30
2018-05-04T16:22:52.408Z,7.50
2018-05-04T16:25:18.716Z,7.13
2018-05-04T16:27:44.998Z,7.10
2018-05-04T16:30:11.267Z,5.73
2018-05-04T16:32:38.328Z,5.90
2018-05-04T16:35:04.601Z,6.37
2018-05-04T16:37:30.857Z,6.23
2018-05-04T16:39:57.873Z,7.00
2018-05-04T16:42:24.145Z,6.80
2018-05-04T16:44:51.170Z,6.60
2018-05-04T16:47:21.413Z,6.53
2018-05-04T16:49:47.978Z,5.57
2018-05-04T16:52:14.236Z,6.53
2018-05-04T16:54:40.480Z,6.30
2018-05-04T16:57:06.736Z,6.00
2018-05-04T16:59:33.761Z,6.70
2018-05-04T17:02:00.022Z,7.03
2018-05-04T17:04:26.276Z,6.77
2018-05-04T17:06:52.569Z,5.30
2018-05-04T17:09:19.691Z,6.23
2018-05-04T17:11:46.015Z,5.70
2018-05-04T17:14:12.268Z,5.00
2018-05-04T17:16:39.285Z,6.20
2018-05-04T17:19:05.599Z,6.30
2018-05-04T17:21:31.876Z,5.87
2018-05-04T17:23:58.889Z,6.10
2018-05-04T17:26:25.144Z,6.30
2018-05-04T17:28:52.148Z,6.30
2018-05-04T17:31:18.381Z,5.10
2018-05-04T17:33:44.672Z,6.30
2018-05-04T17:36:10.912Z,5.57
2018-05-04T17:38:37.160Z,5.70
2018-05-04T17:41:03.380Z,5.60
2018-05-04T17:43:29.604Z,5.77
2018-05-04T17:45:55.829Z,5.67
2018-05-04T17:48:22.105Z,5.90
2018-05-04T17:50:48.437Z,5.27
2018-05-04T17:53:14.716Z,5.83
2018-05-04T17:55:40.964Z,5.73
2018-05-04T17:58:07.224Z,5.67
2018-05-04T18:00:33.470Z,5.07
2018-05-04T18:03:00.718Z,5.47
2018-05-04T18:05:30.252Z,5.80
2018-05-04T18:07:56.548Z,5.50
2018-05-04T18:10:22.914Z,5.70
2018-05-04T18:12:49.087Z,6.10
2018-05-04T18:15:15.372Z,4.70
2018-05-04T18:17:41.623Z,5.33
2018-05-04T18:20:07.901Z,5.50
2018-05-04T18:22:34.917Z,4.93
2018-05-04T18:25:01.202Z,5.50
2018-05-04T18:27:27.465Z,5.07
2018-05-04T18:29:53.718Z,5.20
2018-05-04T18:32:19.944Z,4.90
2018-05-04T18:34:46.216Z,4.17
2018-05-04T18:37:12.464Z,5.03
2018-05-04T18:39:38.697Z,5.27
2018-05-04T18:42:04.922Z,5.90
2018-05-04T18:44:31.160Z,4.60
2018-05-04T18:46:57.421Z,5.20
2018-05-04T18:49:23.648Z,5.03
2018-05-04T18:51:50.728Z,4.87
2018-05-04T18:54:17.005Z,4.80
2018-05-04T18:56:43.422Z,4.77
2018-05-04T18:59:09.665Z,4.53
2018-05-04T19:01:35.929Z,4.70
2018-05-04T19:04:02.989Z,5.30
2018-05-04T19:06:29.985Z,4.97
2018-05-04T19:08:56.237Z,5.17
2018-05-04T19:11:22.533Z,5.80
2018-05-04T19:13:48.757Z,5.80
2018-05-04T19:16:14.974Z,5.27
2018-05-04T19:18:41.263Z,4.53
2018-05-04T19:21:08.305Z,5.73
2018-05-04T19:23:34.597Z,5.13
2018-05-04T19:26:00.862Z,4.47
2018-05-04T19:28:27.123Z,5.33
2018-05-04T19:30:53.361Z,4.83
2018-05-04T19:33:19.706Z,5.13
2018-05-04T19:35:45.978Z,4.77
2018-05-04T19:38:12.231Z,4.63
2018-05-04T19:40:38.459Z,4.90
2018-05-04T19:43:04.775Z,4.57
2018-05-04T19:45:31.790Z,4.40
2018-05-04T19:47:58.035Z,5.20
2018-05-04T19:50:24.281Z,4.50
2018-05-04T19:52:51.271Z,5.03
2018-05-04T19:55:17.481Z,5.00
2018-05-04T19:57:43.793Z,5.20
2018-05-04T20:00:10.749Z,4.00
2018-05-04T20:02:37.035Z,4.37
2018-05-04T20:05:03.345Z,4.70
2018-05-04T20:07:29.641Z,4.77
2018-05-04T20:09:55.900Z,4.30
2018-05-04T20:12:22.212Z,4.57
2018-05-04T20:14:48.461Z,3.77
2018-05-04T20:17:14.718Z,5.30
2018-05-04T20:19:40.996Z,4.50
2018-05-04T20:22:07.348Z,4.23
2018-05-04T20:24:34.357Z,4.73
2018-05-04T20:27:00.734Z,4.87
2018-05-04T20:29:27.098Z,4.80
2018-05-04T20:31:54.213Z,4.47
2018-05-04T20:34:21.314Z,5.20
2018-05-04T20:36:47.653Z,4.33
2018-05-04T20:39:13.975Z,4.83
2018-05-04T20:41:40.184Z,5.03
2018-05-04T20:44:07.178Z,4.50
2018-05-04T20:46:33.453Z,4.27
2018-05-04T20:48:59.697Z,5.13
2018-05-04T20:51:25.983Z,3.83
2018-05-04T20:53:52.273Z,4.00
2018-05-04T20:56:18.541Z,4.37
2018-05-04T20:58:44.789Z,4.50
2018-05-04T21:01:11.066Z,4.40
2018-05-04T21:03:37.299Z,4.30
2018-05-04T21:06:03.542Z,4.87
2018-05-04T21:08:29.754Z,4.40
2018-05-04T21:10:56.005Z,4.00
2018-05-04T21:13:22.253Z,3.83
2018-05-04T21:15:48.545Z,4.27
2018-05-04T21:18:14.808Z,3.87
2018-05-04T21:20:41.092Z,4.00
2018-05-04T21:23:07.347Z,4.40
2018-05-04T21:25:33.605Z,4.60
2018-05-04T21:27:59.862Z,4.00
2018-05-04T21:30:26.096Z,4.23
2018-05-04T21:32:52.384Z,4.40
2018-05-04T21:35:18.648Z,5.17
2018-05-04T21:37:44.869Z,4.13
2018-05-04T21:40:11.937Z,4.40
2018-05-04T21:42:38.192Z,3.83
2018-05-04T21:45:04.438Z,4.23
2018-05-04T21:47:30.654Z,4.07
2018-05-04T21:49:56.882Z,3.73
2018-05-04T21:52:23.131Z,4.50
2018-05-04T21:54:49.350Z,4.23
2018-05-04T21:57:15.718Z,4.00
2018-05-04T21:59:42.669Z,4.10
2018-05-04T22:02:08.916Z,4.50
2018-05-04T22:04:35.179Z,3.93
2018-05-04T22:07:01.409Z,4.67
2018-05-04T22:09:27.640Z,4.63
2018-05-04T22:11:53.845Z,4.30
2018-05-04T22:14:20.121Z,5.63
2018-05-04T22:16:46.380Z,4.10
2018-05-04T22:19:12.608Z,4.53
2018-05-04T22:21:38.870Z,4.17
2018-05-04T22:24:05.164Z,4.13
2018-05-04T22:26:31.428Z,4.80
2018-05-04T22:28:57.653Z,4.67
2018-05-04T22:31:23.905Z,4.47
2018-05-04T22:33:50.148Z,3.30
2018-05-04T22:36:16.444Z,4.10
2018-05-04T22:38:42.721Z,4.20
2018-05-04T22:41:09.704Z,5.03
2018-05-04T22:43:35.953Z,4.73
2018-05-04T22:46:02.226Z,4.23
2018-05-04T22:48:29.196Z,4.50
2018-05-04T22:50:55.432Z,3.90
2018-05-04T22:53:21.741Z,3.63
2018-05-04T22:55:48.119Z,4.27
2018-05-04T22:58:14.390Z,3.80
2018-05-04T23:00:40.696Z,4.93
2018-05-04T23:03:06.961Z,4.40
2018-05-04T23:05:33.976Z,4.00
2018-05-04T23:08:00.975Z,4.10
2018-05-04T23:10:27.305Z,3.80
2018-05-04T23:12:53.634Z,3.87
2018-05-04T23:15:19.892Z,4.77
2018-05-04T23:17:46.898Z,4.10
2018-05-04T23:20:13.197Z,4.27
2018-05-04T23:22:40.204Z,4.53
2018-05-04T23:25:06.517Z,3.50
2018-05-04T23:27:32.800Z,4.50
2018-05-04T23:29:59.848Z,4.70
2018-05-04T23:32:26.112Z,4.13
2018-05-04T23:34:52.393Z,4.37
2018-05-04T23:37:18.662Z,4.40
2018-05-04T23:39:44.969Z,4.17
2018-05-04T23:42:11.942Z,4.70
2018-05-04T23:44:38.209Z,4.13
2018-05-04T23:47:04.530Z,4.53
2018-05-04T23:49:30.737Z,4.00
2018-05-04T23:51:56.985Z,4.40
2018-05-04T23:54:23.207Z,3.93
2018-05-04T23:56:49.461Z,4.00
2018-05-04T23:59:15.719Z,4.20
